SILO ALERT LOG


Silo ID Alert Type Alert Message Silo Type Points Depth (mm) Strength Temperature (°C) Humidity (%) Height (mm) Volume (㎥) Weight (t) Flag Time
WJWJR01 Humidity 습도센서 측정값이 80% 초과 75 5940 1575 21.1 81.7 1699 192.265 121.55 0 2026-06-10 02:26:03.000
WJWJR01 Humidity 습도센서 측정값이 80% 초과 75 5920 1503 21.6 80.7 1719 194.527 122.98 0 2026-06-10 01:26:07.000
WJWJR01 Humidity 습도센서 측정값이 80% 초과 65 6670 1488 19.3 82.3 969 109.704 69.355 0 2026-06-09 08:25:59.000
WJWJR05 Humidity 습도센서 측정값이 80% 초과 63 5520 3462 21.7 82.4 2210 249.945 158.015 0 2026-06-09 08:25:47.000
WJWJR01 Humidity 습도센서 측정값이 80% 초과 65 6630 1471 19 82.8 1009 114.228 72.215 0 2026-06-09 07:25:57.000
WJWJR05 Humidity 습도센서 측정값이 80% 초과 65 5530 3288 21.5 82.5 2200 248.814 157.3 0 2026-06-09 07:25:51.000
WJWJR01 Humidity 습도센서 측정값이 80% 초과 63 6640 1507 18.9 83.2 1000 113.097 71.5 0 2026-06-09 06:26:01.000
WJWJR05 Humidity 습도센서 측정값이 80% 초과 65 5490 3271 21.6 82.3 2240 253.338 160.16 0 2026-06-09 06:25:49.000
WJWJR01 Humidity 습도센서 측정값이 80% 초과 65 6630 1501 19.2 83 1009 114.228 72.215 0 2026-06-09 05:25:55.000
WJWJR05 Humidity 습도센서 측정값이 80% 초과 67 5550 3279 21.8 82.1 2180 246.552 155.87 0 2026-06-09 05:25:51.000
WJWJR01 Humidity 습도센서 측정값이 80% 초과 66 6650 1464 19.4 82.5 989 111.966 70.785 0 2026-06-09 04:25:57.000
WJWJR05 Humidity 습도센서 측정값이 80% 초과 66 5510 3290 22 81.7 2220 251.076 158.73 0 2026-06-09 04:25:48.000
WJWJR01 Humidity 습도센서 측정값이 80% 초과 66 6640 1445 19.9 82 1000 113.097 71.5 0 2026-06-09 03:25:56.000
WJWJR05 Humidity 습도센서 측정값이 80% 초과 67 5490 3324 22.3 81.2 2240 253.338 160.16 0 2026-06-09 03:25:50.000
WJWJR01 Humidity 습도센서 측정값이 80% 초과 65 6630 1445 20.2 81.4 1009 114.228 72.215 0 2026-06-09 02:25:59.000
WJWJR05 Humidity 습도센서 측정값이 80% 초과 65 5440 3375 22.6 80.5 2290 258.993 163.735 0 2026-06-09 02:25:49.000
WJWJR01 Humidity 습도센서 측정값이 80% 초과 66 6620 1412 20.7 80.3 1019 115.359 72.93 0 2026-06-09 01:25:58.000
WJWJR01 Humidity 습도센서 측정값이 80% 초과 33 1128 1051 20.6 80.8 6511 736.478 465.601 29 2026-06-08 09:25:50.000
WJWJR05 Humidity 습도센서 측정값이 80% 초과 10 1565 3884 22 81.5 6164 697.242 440.796 0 2026-06-08 08:27:25.000
WJWJR01 Humidity 습도센서 측정값이 80% 초과 83 4641 1310 20.1 83.6 2998 339.091 214.373 0 2026-06-08 08:26:44.000

[첫 페이지] [47] [48] [49] [50] 51 [52] [53] [54] [55] [마지막 페이지]